CheckWX is a tool to help pilots better visualize weather data.  It is not intended as a substitute for an official pre-flight weather briefing.

05:10:42 UTC

EGFF METAR
Cardiff International Airport
Cardiff, United Kingdom
Current

51 mins ago

EGFF 240420Z AUTO 08006KT 1300 BR NCD 05/05 Q1033
Observed
Feb-24 @ 04:20 UTC
Wind
  • 080° at 6 KTS
Visibility
1,304 meters
Flight Rules
LIFR
Conditions
Mist
Cloud Levels
  • Clear skies
Temperature
C / 41°F
Dewpoint
C / 41°F
Humidity
100%
Altimeter
30.5" Hg
Pressure
1032.91 hPa
Previous

1 hour ago

EGFF 240350Z AUTO 07005KT 1400 BR NCD 06/05 Q1033
Observed
Feb-24 @ 03:50 UTC
Wind
  • 070° at 5 KTS
Visibility
1,400 meters
Flight Rules
LIFR
Conditions
Mist
Cloud Levels
  • Clear skies
Temperature
C / 43°F
Dewpoint
C / 41°F
Humidity
93%
Altimeter
30.5" Hg
Pressure
1032.91 hPa
Previous

2 hours ago

EGFF 240320Z AUTO 07008KT 1700 BR NCD 06/06 Q1033
Observed
Feb-24 @ 03:20 UTC
Wind
  • 070° at 8 KTS
Visibility
1,706 meters
Flight Rules
IFR
Conditions
Mist
Cloud Levels
  • Clear skies
Temperature
C / 43°F
Dewpoint
C / 43°F
Humidity
100%
Altimeter
30.5" Hg
Pressure
1032.91 hPa